sensor_id;sensor_type;location;lat;lon;timestamp;temperature;humidity
74368;DHT22;64991;41.090;-8.118;2023-04-01T00:00:04;19.30;79.50
74368;DHT22;64991;41.090;-8.118;2023-04-01T00:05:09;19.30;79.50
74368;DHT22;64991;41.090;-8.118;2023-04-01T00:10:13;19.40;79.60
74368;DHT22;64991;41.090;-8.118;2023-04-01T00:15:18;19.30;79.20
74368;DHT22;64991;41.090;-8.118;2023-04-01T00:20:21;19.30;79.50
74368;DHT22;64991;41.090;-8.118;2023-04-01T00:25:25;19.30;79.50
74368;DHT22;64991;41.090;-8.118;2023-04-01T00:30:30;19.30;79.60
74368;DHT22;64991;41.090;-8.118;2023-04-01T00:35:34;19.30;79.60
74368;DHT22;64991;41.090;-8.118;2023-04-01T00:40:38;19.30;79.80
74368;DHT22;64991;41.090;-8.118;2023-04-01T00:45:45;19.30;79.50
74368;DHT22;64991;41.090;-8.118;2023-04-01T00:50:50;19.30;79.70
74368;DHT22;64991;41.090;-8.118;2023-04-01T00:55:56;19.30;79.50
74368;DHT22;64991;41.090;-8.118;2023-04-01T01:01:04;19.30;79.70
74368;DHT22;64991;41.090;-8.118;2023-04-01T01:06:08;19.30;79.40
74368;DHT22;64991;41.090;-8.118;2023-04-01T01:11:14;19.30;79.60
74368;DHT22;64991;41.090;-8.118;2023-04-01T01:16:24;19.30;79.40
74368;DHT22;64991;41.090;-8.118;2023-04-01T01:21:37;19.30;79.50
74368;DHT22;64991;41.090;-8.118;2023-04-01T01:26:53;19.30;79.40
74368;DHT22;64991;41.090;-8.118;2023-04-01T01:32:03;19.30;79.30
74368;DHT22;64991;41.090;-8.118;2023-04-01T01:37:13;19.20;79.50
74368;DHT22;64991;41.090;-8.118;2023-04-01T01:42:18;19.20;79.60
74368;DHT22;64991;41.090;-8.118;2023-04-01T01:47:22;19.30;79.60
74368;DHT22;64991;41.090;-8.118;2023-04-01T01:52:28;19.30;79.30
74368;DHT22;64991;41.090;-8.118;2023-04-01T01:57:32;19.30;79.40
74368;DHT22;64991;41.090;-8.118;2023-04-01T02:02:37;19.20;79.60
74368;DHT22;64991;41.090;-8.118;2023-04-01T02:07:43;19.20;79.80
74368;DHT22;64991;41.090;-8.118;2023-04-01T02:12:49;19.20;79.90
74368;DHT22;64991;41.090;-8.118;2023-04-01T02:17:54;19.30;79.90
74368;DHT22;64991;41.090;-8.118;2023-04-01T02:23:00;19.20;79.70
74368;DHT22;64991;41.090;-8.118;2023-04-01T02:28:04;19.20;79.60
74368;DHT22;64991;41.090;-8.118;2023-04-01T02:33:08;19.20;79.60
74368;DHT22;64991;41.090;-8.118;2023-04-01T02:38:13;19.20;79.80
74368;DHT22;64991;41.090;-8.118;2023-04-01T02:43:18;19.20;79.70
74368;DHT22;64991;41.090;-8.118;2023-04-01T02:48:23;19.20;79.50
74368;DHT22;64991;41.090;-8.118;2023-04-01T02:53:28;19.20;79.90
74368;DHT22;64991;41.090;-8.118;2023-04-01T02:58:31;19.30;79.70
74368;DHT22;64991;41.090;-8.118;2023-04-01T03:03:35;19.20;79.80
74368;DHT22;64991;41.090;-8.118;2023-04-01T03:08:40;19.10;79.70
74368;DHT22;64991;41.090;-8.118;2023-04-01T03:13:43;19.30;79.60
74368;DHT22;64991;41.090;-8.118;2023-04-01T03:18:47;19.20;79.80
74368;DHT22;64991;41.090;-8.118;2023-04-01T03:23:53;19.20;79.70
74368;DHT22;64991;41.090;-8.118;2023-04-01T03:28:56;19.30;79.80
74368;DHT22;64991;41.090;-8.118;2023-04-01T03:33:59;19.20;79.80
74368;DHT22;64991;41.090;-8.118;2023-04-01T03:39:04;19.20;79.70
74368;DHT22;64991;41.090;-8.118;2023-04-01T03:44:08;19.20;79.90
74368;DHT22;64991;41.090;-8.118;2023-04-01T03:49:11;19.20;79.80
74368;DHT22;64991;41.090;-8.118;2023-04-01T03:54:16;19.20;79.80
74368;DHT22;64991;41.090;-8.118;2023-04-01T03:59:21;19.10;79.90
74368;DHT22;64991;41.090;-8.118;2023-04-01T04:04:25;19.20;79.90
74368;DHT22;64991;41.090;-8.118;2023-04-01T04:09:31;19.20;80.00
74368;DHT22;64991;41.090;-8.118;2023-04-01T04:14:34;19.20;79.80
74368;DHT22;64991;41.090;-8.118;2023-04-01T04:19:38;19.20;79.90
74368;DHT22;64991;41.090;-8.118;2023-04-01T04:24:43;19.20;79.80
74368;DHT22;64991;41.090;-8.118;2023-04-01T04:29:46;19.20;79.90
74368;DHT22;64991;41.090;-8.118;2023-04-01T04:34:50;19.20;79.70
74368;DHT22;64991;41.090;-8.118;2023-04-01T04:39:55;19.20;79.80
74368;DHT22;64991;41.090;-8.118;2023-04-01T04:44:58;19.20;79.80
74368;DHT22;64991;41.090;-8.118;2023-04-01T04:50:02;19.10;80.00
74368;DHT22;64991;41.090;-8.118;2023-04-01T04:55:07;19.10;80.00
74368;DHT22;64991;41.090;-8.118;2023-04-01T05:00:11;19.20;79.70
74368;DHT22;64991;41.090;-8.118;2023-04-01T05:05:15;19.20;79.80
74368;DHT22;64991;41.090;-8.118;2023-04-01T05:10:20;19.10;80.10
74368;DHT22;64991;41.090;-8.118;2023-04-01T05:15:23;19.10;79.50
74368;DHT22;64991;41.090;-8.118;2023-04-01T05:20:27;19.20;79.90
74368;DHT22;64991;41.090;-8.118;2023-04-01T05:25:32;19.20;80.10
74368;DHT22;64991;41.090;-8.118;2023-04-01T05:30:36;19.10;79.80
74368;DHT22;64991;41.090;-8.118;2023-04-01T05:35:39;19.20;79.70
74368;DHT22;64991;41.090;-8.118;2023-04-01T05:40:45;19.20;80.00
74368;DHT22;64991;41.090;-8.118;2023-04-01T05:45:48;19.20;79.70
74368;DHT22;64991;41.090;-8.118;2023-04-01T05:50:52;19.10;79.70
74368;DHT22;64991;41.090;-8.118;2023-04-01T05:55:56;19.10;79.60
74368;DHT22;64991;41.090;-8.118;2023-04-01T06:01:00;19.20;79.90
74368;DHT22;64991;41.090;-8.118;2023-04-01T06:06:15;19.10;79.80
74368;DHT22;64991;41.090;-8.118;2023-04-01T06:11:25;19.10;79.80
74368;DHT22;64991;41.090;-8.118;2023-04-01T06:16:35;19.10;79.80
74368;DHT22;64991;41.090;-8.118;2023-04-01T06:21:55;19.10;79.90
74368;DHT22;64991;41.090;-8.118;2023-04-01T06:27:24;19.10;79.90
74368;DHT22;64991;41.090;-8.118;2023-04-01T06:32:42;19.10;79.90
74368;DHT22;64991;41.090;-8.118;2023-04-01T06:38:09;19.10;79.80
74368;DHT22;64991;41.090;-8.118;2023-04-01T06:43:32;19.10;80.00
74368;DHT22;64991;41.090;-8.118;2023-04-01T06:48:44;19.10;80.20
74368;DHT22;64991;41.090;-8.118;2023-04-01T06:53:59;19.10;80.00
74368;DHT22;64991;41.090;-8.118;2023-04-01T06:59:09;19.20;79.90
74368;DHT22;64991;41.090;-8.118;2023-04-01T07:04:15;19.20;80.00
74368;DHT22;64991;41.090;-8.118;2023-04-01T07:09:22;19.10;80.10
74368;DHT22;64991;41.090;-8.118;2023-04-01T07:14:32;19.10;80.00
74368;DHT22;64991;41.090;-8.118;2023-04-01T07:19:39;19.10;79.90
74368;DHT22;64991;41.090;-8.118;2023-04-01T07:24:46;19.10;80.10
74368;DHT22;64991;41.090;-8.118;2023-04-01T07:29:51;19.10;80.20
74368;DHT22;64991;41.090;-8.118;2023-04-01T07:35:07;19.10;80.00
74368;DHT22;64991;41.090;-8.118;2023-04-01T07:40:18;19.10;80.00
74368;DHT22;64991;41.090;-8.118;2023-04-01T07:45:28;19.00;80.30
74368;DHT22;64991;41.090;-8.118;2023-04-01T07:50:36;19.10;80.20
74368;DHT22;64991;41.090;-8.118;2023-04-01T07:55:44;19.10;80.30
74368;DHT22;64991;41.090;-8.118;2023-04-01T08:00:54;19.10;80.20
74368;DHT22;64991;41.090;-8.118;2023-04-01T08:06:03;19.10;80.20
74368;DHT22;64991;41.090;-8.118;2023-04-01T08:11:12;19.00;80.10
74368;DHT22;64991;41.090;-8.118;2023-04-01T08:16:26;19.10;80.30
74368;DHT22;64991;41.090;-8.118;2023-04-01T08:21:35;19.10;80.30
74368;DHT22;64991;41.090;-8.118;2023-04-01T08:26:44;19.00;80.60
74368;DHT22;64991;41.090;-8.118;2023-04-01T08:31:51;19.10;80.40
74368;DHT22;64991;41.090;-8.118;2023-04-01T08:36:59;19.10;80.10
74368;DHT22;64991;41.090;-8.118;2023-04-01T08:42:24;19.10;80.40
74368;DHT22;64991;41.090;-8.118;2023-04-01T08:53:17;19.10;80.40
74368;DHT22;64991;41.090;-8.118;2023-04-01T09:04:25;19.10;80.70
74368;DHT22;64991;41.090;-8.118;2023-04-01T09:09:48;19.10;80.40
74368;DHT22;64991;41.090;-8.118;2023-04-01T09:15:18;19.00;80.40
74368;DHT22;64991;41.090;-8.118;2023-04-01T09:20:36;19.10;80.50
74368;DHT22;64991;41.090;-8.118;2023-04-01T09:25:59;19.00;80.60
74368;DHT22;64991;41.090;-8.118;2023-04-01T09:36:43;19.10;80.40
74368;DHT22;64991;41.090;-8.118;2023-04-01T09:41:52;19.00;80.40
74368;DHT22;64991;41.090;-8.118;2023-04-01T09:47:10;19.00;80.60
74368;DHT22;64991;41.090;-8.118;2023-04-01T09:52:26;19.00;80.70
74368;DHT22;64991;41.090;-8.118;2023-04-01T09:58:00;19.10;80.50
74368;DHT22;64991;41.090;-8.118;2023-04-01T10:09:31;19.00;80.60
74368;DHT22;64991;41.090;-8.118;2023-04-01T10:15:19;19.10;80.70
74368;DHT22;64991;41.090;-8.118;2023-04-01T10:20:39;19.10;80.80
74368;DHT22;64991;41.090;-8.118;2023-04-01T10:25:57;19.10;80.60
74368;DHT22;64991;41.090;-8.118;2023-04-01T10:31:24;19.10;80.90
74368;DHT22;64991;41.090;-8.118;2023-04-01T10:36:50;19.10;80.70
74368;DHT22;64991;41.090;-8.118;2023-04-01T10:53:34;19.10;80.80
74368;DHT22;64991;41.090;-8.118;2023-04-01T11:04:35;19.10;81.00
74368;DHT22;64991;41.090;-8.118;2023-04-01T11:10:01;19.20;80.80
74368;DHT22;64991;41.090;-8.118;2023-04-01T11:26:46;19.10;80.70
74368;DHT22;64991;41.090;-8.118;2023-04-01T11:31:58;19.00;80.90
74368;DHT22;64991;41.090;-8.118;2023-04-01T11:37:08;19.00;80.60
74368;DHT22;64991;41.090;-8.118;2023-04-01T11:42:23;19.00;81.30
74368;DHT22;64991;41.090;-8.118;2023-04-01T11:47:41;19.10;80.80
74368;DHT22;64991;41.090;-8.118;2023-04-01T11:58:21;19.10;81.00
74368;DHT22;64991;41.090;-8.118;2023-04-01T12:09:31;19.00;81.10
74368;DHT22;64991;41.090;-8.118;2023-04-01T12:14:41;19.00;81.00
74368;DHT22;64991;41.090;-8.118;2023-04-01T12:19:51;19.10;81.00
74368;DHT22;64991;41.090;-8.118;2023-04-01T12:25:00;19.00;81.00
74368;DHT22;64991;41.090;-8.118;2023-04-01T12:30:30;19.00;81.20
74368;DHT22;64991;41.090;-8.118;2023-04-01T12:35:42;19.00;81.50
74368;DHT22;64991;41.090;-8.118;2023-04-01T12:40:56;19.10;81.30
74368;DHT22;64991;41.090;-8.118;2023-04-01T12:46:12;19.00;81.20
74368;DHT22;64991;41.090;-8.118;2023-04-01T12:51:24;19.00;81.40
74368;DHT22;64991;41.090;-8.118;2023-04-01T12:56:38;19.00;81.30
74368;DHT22;64991;41.090;-8.118;2023-04-01T13:02:01;19.00;81.20
74368;DHT22;64991;41.090;-8.118;2023-04-01T13:07:29;19.00;81.40
74368;DHT22;64991;41.090;-8.118;2023-04-01T13:12:50;19.00;81.30
74368;DHT22;64991;41.090;-8.118;2023-04-01T13:18:09;19.00;81.20
74368;DHT22;64991;41.090;-8.118;2023-04-01T13:23:24;19.00;81.20
74368;DHT22;64991;41.090;-8.118;2023-04-01T13:28:36;19.00;81.60
74368;DHT22;64991;41.090;-8.118;2023-04-01T13:33:45;19.00;81.70
74368;DHT22;64991;41.090;-8.118;2023-04-01T13:38:54;19.00;81.40
74368;DHT22;64991;41.090;-8.118;2023-04-01T13:44:06;19.00;81.70
74368;DHT22;64991;41.090;-8.118;2023-04-01T13:49:23;19.10;81.70
74368;DHT22;64991;41.090;-8.118;2023-04-01T13:54:37;19.00;81.80
74368;DHT22;64991;41.090;-8.118;2023-04-01T14:00:16;19.00;81.70
74368;DHT22;64991;41.090;-8.118;2023-04-01T14:05:35;19.00;81.60
74368;DHT22;64991;41.090;-8.118;2023-04-01T14:10:45;19.00;81.80
74368;DHT22;64991;41.090;-8.118;2023-04-01T14:16:00;19.00;81.60
74368;DHT22;64991;41.090;-8.118;2023-04-01T14:21:23;19.10;81.50
74368;DHT22;64991;41.090;-8.118;2023-04-01T14:26:42;19.00;81.60
74368;DHT22;64991;41.090;-8.118;2023-04-01T14:32:05;19.00;81.70
74368;DHT22;64991;41.090;-8.118;2023-04-01T14:37:18;19.00;81.80
74368;DHT22;64991;41.090;-8.118;2023-04-01T14:48:05;19.00;81.60
74368;DHT22;64991;41.090;-8.118;2023-04-01T14:53:24;19.00;82.00
74368;DHT22;64991;41.090;-8.118;2023-04-01T14:58:39;19.00;82.00
74368;DHT22;64991;41.090;-8.118;2023-04-01T15:03:48;19.00;81.90
74368;DHT22;64991;41.090;-8.118;2023-04-01T15:08:57;19.00;82.00
74368;DHT22;64991;41.090;-8.118;2023-04-01T15:14:07;19.00;82.00
74368;DHT22;64991;41.090;-8.118;2023-04-01T15:19:22;19.00;81.80
74368;DHT22;64991;41.090;-8.118;2023-04-01T15:24:35;19.10;81.80
74368;DHT22;64991;41.090;-8.118;2023-04-01T15:29:47;19.00;82.00
74368;DHT22;64991;41.090;-8.118;2023-04-01T15:35:06;19.00;81.90
74368;DHT22;64991;41.090;-8.118;2023-04-01T15:40:20;19.00;82.00
74368;DHT22;64991;41.090;-8.118;2023-04-01T15:45:35;19.00;81.90
74368;DHT22;64991;41.090;-8.118;2023-04-01T15:50:49;19.00;81.90
74368;DHT22;64991;41.090;-8.118;2023-04-01T15:55:59;19.10;82.10
74368;DHT22;64991;41.090;-8.118;2023-04-01T16:01:13;19.00;82.20
74368;DHT22;64991;41.090;-8.118;2023-04-01T16:11:55;19.00;82.10
74368;DHT22;64991;41.090;-8.118;2023-04-01T16:17:05;19.00;81.90
74368;DHT22;64991;41.090;-8.118;2023-04-01T16:22:20;19.00;82.20
74368;DHT22;64991;41.090;-8.118;2023-04-01T16:27:29;19.00;82.00
74368;DHT22;64991;41.090;-8.118;2023-04-01T16:32:41;19.00;82.00
74368;DHT22;64991;41.090;-8.118;2023-04-01T16:37:48;19.00;82.20
74368;DHT22;64991;41.090;-8.118;2023-04-01T16:42:55;19.00;82.10
74368;DHT22;64991;41.090;-8.118;2023-04-01T16:48:10;19.00;82.30
74368;DHT22;64991;41.090;-8.118;2023-04-01T16:53:17;19.00;82.00
74368;DHT22;64991;41.090;-8.118;2023-04-01T16:58:27;19.00;82.20
74368;DHT22;64991;41.090;-8.118;2023-04-01T17:03:33;19.00;82.10
74368;DHT22;64991;41.090;-8.118;2023-04-01T17:14:11;19.00;82.00
74368;DHT22;64991;41.090;-8.118;2023-04-01T17:19:24;19.00;82.10
74368;DHT22;64991;41.090;-8.118;2023-04-01T17:24:40;19.00;82.10
74368;DHT22;64991;41.090;-8.118;2023-04-01T17:29:59;19.00;82.00
74368;DHT22;64991;41.090;-8.118;2023-04-01T17:35:09;19.00;82.10
74368;DHT22;64991;41.090;-8.118;2023-04-01T17:40:20;19.00;82.10
74368;DHT22;64991;41.090;-8.118;2023-04-01T17:45:35;18.90;82.20
74368;DHT22;64991;41.090;-8.118;2023-04-01T17:50:55;19.00;82.40
74368;DHT22;64991;41.090;-8.118;2023-04-01T17:56:08;19.10;82.00
74368;DHT22;64991;41.090;-8.118;2023-04-01T18:01:29;19.00;81.90
74368;DHT22;64991;41.090;-8.118;2023-04-01T18:06:40;19.10;82.10
74368;DHT22;64991;41.090;-8.118;2023-04-01T18:11:57;19.00;81.90
74368;DHT22;64991;41.090;-8.118;2023-04-01T18:17:08;19.00;82.00
74368;DHT22;64991;41.090;-8.118;2023-04-01T18:22:26;19.00;82.10
74368;DHT22;64991;41.090;-8.118;2023-04-01T18:27:32;19.00;82.00
74368;DHT22;64991;41.090;-8.118;2023-04-01T18:32:44;19.00;82.30
74368;DHT22;64991;41.090;-8.118;2023-04-01T18:37:53;19.00;82.30
74368;DHT22;64991;41.090;-8.118;2023-04-01T18:43:02;19.00;82.30
74368;DHT22;64991;41.090;-8.118;2023-04-01T18:48:17;19.00;82.30
74368;DHT22;64991;41.090;-8.118;2023-04-01T18:53:43;19.00;82.20
74368;DHT22;64991;41.090;-8.118;2023-04-01T18:58:50;19.10;81.90
74368;DHT22;64991;41.090;-8.118;2023-04-01T19:04:07;18.90;82.40
74368;DHT22;64991;41.090;-8.118;2023-04-01T19:09:18;19.00;82.30
74368;DHT22;64991;41.090;-8.118;2023-04-01T19:14:25;19.00;82.20
74368;DHT22;64991;41.090;-8.118;2023-04-01T19:25:09;18.90;82.10
74368;DHT22;64991;41.090;-8.118;2023-04-01T19:30:26;19.00;82.30
74368;DHT22;64991;41.090;-8.118;2023-04-01T19:35:38;19.00;82.30
74368;DHT22;64991;41.090;-8.118;2023-04-01T19:40:48;18.90;82.00
74368;DHT22;64991;41.090;-8.118;2023-04-01T19:45:57;18.90;82.30
74368;DHT22;64991;41.090;-8.118;2023-04-01T19:51:09;18.90;82.30
74368;DHT22;64991;41.090;-8.118;2023-04-01T19:56:16;18.90;82.30
74368;DHT22;64991;41.090;-8.118;2023-04-01T20:01:22;19.00;82.10
74368;DHT22;64991;41.090;-8.118;2023-04-01T20:06:46;19.00;81.90
74368;DHT22;64991;41.090;-8.118;2023-04-01T20:11:56;19.00;82.10
74368;DHT22;64991;41.090;-8.118;2023-04-01T20:17:07;19.00;82.00
74368;DHT22;64991;41.090;-8.118;2023-04-01T20:22:31;19.00;82.00
74368;DHT22;64991;41.090;-8.118;2023-04-01T20:27:41;19.00;82.10
74368;DHT22;64991;41.090;-8.118;2023-04-01T20:32:57;19.00;82.20
74368;DHT22;64991;41.090;-8.118;2023-04-01T20:43:57;19.10;82.10
74368;DHT22;64991;41.090;-8.118;2023-04-01T20:49:14;18.90;82.00
74368;DHT22;64991;41.090;-8.118;2023-04-01T20:54:33;18.90;82.10
74368;DHT22;64991;41.090;-8.118;2023-04-01T20:59:51;18.90;82.30
74368;DHT22;64991;41.090;-8.118;2023-04-01T21:05:17;18.90;81.90
74368;DHT22;64991;41.090;-8.118;2023-04-01T21:10:41;18.90;82.10
74368;DHT22;64991;41.090;-8.118;2023-04-01T21:15:47;19.00;82.30
74368;DHT22;64991;41.090;-8.118;2023-04-01T21:26:30;19.00;82.10
74368;DHT22;64991;41.090;-8.118;2023-04-01T21:31:53;19.00;82.30
74368;DHT22;64991;41.090;-8.118;2023-04-01T21:37:07;18.90;82.30
74368;DHT22;64991;41.090;-8.118;2023-04-01T21:42:25;19.00;82.20
74368;DHT22;64991;41.090;-8.118;2023-04-01T21:47:54;19.00;82.00
74368;DHT22;64991;41.090;-8.118;2023-04-01T21:53:37;19.00;82.00
74368;DHT22;64991;41.090;-8.118;2023-04-01T21:59:12;18.90;81.90
74368;DHT22;64991;41.090;-8.118;2023-04-01T22:04:42;18.90;82.00
74368;DHT22;64991;41.090;-8.118;2023-04-01T22:09:52;18.90;82.10
74368;DHT22;64991;41.090;-8.118;2023-04-01T22:15:03;18.90;81.70
74368;DHT22;64991;41.090;-8.118;2023-04-01T22:20:15;19.00;81.80
74368;DHT22;64991;41.090;-8.118;2023-04-01T22:25:23;19.00;81.80
74368;DHT22;64991;41.090;-8.118;2023-04-01T22:30:31;18.90;81.90
74368;DHT22;64991;41.090;-8.118;2023-04-01T22:35:38;18.90;81.90
74368;DHT22;64991;41.090;-8.118;2023-04-01T22:40:45;18.90;81.60
74368;DHT22;64991;41.090;-8.118;2023-04-01T22:46:00;18.90;81.70
74368;DHT22;64991;41.090;-8.118;2023-04-01T22:51:07;18.90;81.70
74368;DHT22;64991;41.090;-8.118;2023-04-01T22:56:17;19.00;81.40
74368;DHT22;64991;41.090;-8.118;2023-04-01T23:01:24;18.90;81.70
74368;DHT22;64991;41.090;-8.118;2023-04-01T23:06:30;18.90;81.50
74368;DHT22;64991;41.090;-8.118;2023-04-01T23:11:37;18.80;81.40
74368;DHT22;64991;41.090;-8.118;2023-04-01T23:16:47;18.80;81.50
74368;DHT22;64991;41.090;-8.118;2023-04-01T23:21:58;18.80;81.50
74368;DHT22;64991;41.090;-8.118;2023-04-01T23:27:05;18.90;81.40
74368;DHT22;64991;41.090;-8.118;2023-04-01T23:32:15;18.90;81.00
74368;DHT22;64991;41.090;-8.118;2023-04-01T23:37:19;18.80;81.20
74368;DHT22;64991;41.090;-8.118;2023-04-01T23:42:23;18.80;81.20
74368;DHT22;64991;41.090;-8.118;2023-04-01T23:47:31;18.90;81.10
74368;DHT22;64991;41.090;-8.118;2023-04-01T23:52:36;18.90;81.10
74368;DHT22;64991;41.090;-8.118;2023-04-01T23:57:43;18.80;81.20
